Skip Navigation LinksHome page > Tools > METAR decoder Skip Navigation Links

METAR decoder

Settings

METAR

Chicago O'Hare Intl, Chicago

For information only: do not use for flight planning or navigation.
Latest weather
Observation time Saturday, January 23, 2021 8:51 PM CST
Local time Saturday, January 23, 2021 9:19 PM CST
Flight conditions Visual Meteorological Conditions
Winds
Wind direction South-Southeast (150°)
Wind speed 10 mph
Visibility 10 mi.
Sky condition
Ceiling 8,000 ft. overcast
Cloud layer overcast 8,000 ft.
Temperature 28°F
Dewpoint 15°F
Altimeter 30.24 in.Hg
Pressure change last 3 hours0.02 in.Hg
Pressure falling more slowly
Derived measurements
Relative humidity 58%
Wind chill 19°F
Density altitude -1762 ft.
Sea-level pressure 30.27 in.Hg
Remarks
Automated weather observing station with precipitation discriminator.
METAR KORD 240251Z 15009KT 10SM OVC080 M02/M09 A3024 RMK AO2 SLP251 T10221094 56008

InnerDrive.Weather 4.0.6770.0 Release CLR 4.0.30319.42000
Copyright ©2018 Inner Drive Technology. All rights reserved. Portions Copyright ©1986-2018 David Braverman.

Find weather

Site navigation


Skip Navigation Links

Place info

Page info

PayPal - The safer, easier way to pay online!

Return home.

Copyright ©2021 Inner Drive Technology. Purveyors of fine, hand-crafted computer software. Page printed 2021-01-24T03:19:33 UTC.